createdAt,value
2019-01-19T00:03:32.636Z,102066.59
2019-01-19T00:09:13.175Z,102059.92
2019-01-19T00:14:28.235Z,102054.28
2019-01-19T00:20:04.376Z,102049.73
2019-01-19T00:25:53.079Z,102044.94
2019-01-19T00:31:08.592Z,102046.91
2019-01-19T00:36:47.218Z,102036.50
2019-01-19T00:42:03.455Z,102033.98
2019-01-19T00:47:34.231Z,102031.88
2019-01-19T00:53:05.226Z,102028.14
2019-01-19T00:58:14.994Z,102023.58
2019-01-19T01:03:58.313Z,102022.84
2019-01-19T01:09:35.993Z,102014.71
2019-01-19T01:15:13.620Z,102011.82
2019-01-19T01:20:52.853Z,102014.70
2019-01-19T01:26:42.164Z,102009.68
2019-01-19T01:32:05.732Z,102005.56
2019-01-19T01:37:36.044Z,102004.81
2019-01-19T01:43:10.501Z,101994.86
2019-01-19T01:48:57.120Z,102002.61
2019-01-19T01:54:37.672Z,101999.11
2019-01-19T02:00:24.022Z,101995.64
2019-01-19T02:05:48.394Z,101996.16
2019-01-19T02:11:49.980Z,102000.27
2019-01-19T02:17:29.504Z,101995.03
2019-01-19T02:23:12.331Z,101991.91
2019-01-19T02:28:35.896Z,101985.69
2019-01-19T02:34:12.969Z,101984.09
2019-01-19T02:39:52.420Z,101977.50
2019-01-19T02:45:41.225Z,101974.44
2019-01-19T02:50:54.882Z,101963.50
2019-01-19T02:56:27.750Z,101963.66
2019-01-19T03:01:58.342Z,101960.02
2019-01-19T03:07:40.670Z,101960.70
2019-01-19T03:13:27.162Z,101956.83
2019-01-19T03:19:11.810Z,101953.08
2019-01-19T03:24:39.076Z,101952.19
2019-01-19T03:30:37.569Z,101950.22
2019-01-19T03:36:29.289Z,101940.58
2019-01-19T03:41:58.993Z,101940.09
2019-01-19T03:47:36.691Z,101939.19
2019-01-19T03:53:31.128Z,101930.73
2019-01-19T03:58:59.782Z,101925.69
2019-01-19T04:04:52.401Z,101915.06
2019-01-19T04:10:42.121Z,101914.84
2019-01-19T04:16:23.559Z,101916.30
2019-01-19T04:22:02.487Z,101913.92
2019-01-19T04:27:03.993Z,101895.70
2019-01-19T04:32:05.645Z,101896.07
2019-01-19T04:37:07.152Z,101895.30
2019-01-19T04:42:08.896Z,101897.28
2019-01-19T04:47:10.428Z,101886.05
2019-01-19T04:52:11.945Z,101882.05
2019-01-19T04:57:13.463Z,101885.09
2019-01-19T05:02:15.480Z,101874.51
2019-01-19T05:07:16.995Z,101875.75
2019-01-19T05:12:18.550Z,101867.55
2019-01-19T05:17:20.107Z,101862.08
2019-01-19T05:22:21.649Z,101863.22
2019-01-19T05:27:23.532Z,101859.77
2019-01-19T05:32:25.068Z,101857.80
2019-01-19T05:37:26.628Z,101857.10
2019-01-19T05:42:28.164Z,101857.84
2019-01-19T05:47:29.701Z,101854.67
2019-01-19T05:52:31.411Z,101853.23
2019-01-19T05:57:33.151Z,101850.34
2019-01-19T06:02:34.740Z,101844.97
2019-01-19T06:07:38.357Z,101843.69
2019-01-19T06:12:39.977Z,101840.73
2019-01-19T06:17:41.956Z,101842.39
2019-01-19T06:22:43.499Z,101838.91
2019-01-19T06:27:45.071Z,101837.42
2019-01-19T06:32:46.646Z,101835.22
2019-01-19T06:37:48.261Z,101846.26
2019-01-19T06:42:49.766Z,101840.37
2019-01-19T06:47:51.307Z,101839.59
2019-01-19T06:52:52.960Z,101833.56
2019-01-19T06:57:54.525Z,101840.88
2019-01-19T07:02:56.155Z,101834.30
2019-01-19T07:07:57.754Z,101823.63
2019-01-19T07:12:59.345Z,101823.45
2019-01-19T07:18:00.962Z,101826.44
2019-01-19T07:23:02.734Z,101827.17
2019-01-19T07:28:04.621Z,101826.11
2019-01-19T07:33:06.138Z,101825.02
2019-01-19T07:38:07.732Z,101828.69
2019-01-19T07:43:11.612Z,101830.71
2019-01-19T07:48:13.592Z,101833.83
2019-01-19T07:53:15.853Z,101836.78
2019-01-19T07:58:17.411Z,101836.78
2019-01-19T08:03:18.958Z,101838.39
2019-01-19T08:08:20.483Z,101837.02
2019-01-19T08:13:22.034Z,101853.20
2019-01-19T08:18:23.728Z,101853.30
2019-01-19T08:23:26.217Z,101858.77
2019-01-19T08:28:28.001Z,101859.38
2019-01-19T08:33:30.035Z,101857.67
2019-01-19T08:38:31.554Z,101855.05
2019-01-19T08:43:33.456Z,101857.17
2019-01-19T08:48:35.231Z,101853.80
2019-01-19T08:53:36.768Z,101848.38
2019-01-19T08:58:39.023Z,101846.26
2019-01-19T09:03:41.021Z,101843.95
2019-01-19T09:08:42.667Z,101842.14
2019-01-19T09:13:44.247Z,101837.25
2019-01-19T09:18:46.239Z,101834.30
2019-01-19T09:23:47.834Z,101830.63
2019-01-19T09:28:49.703Z,101832.83
2019-01-19T09:33:51.286Z,101833.70
2019-01-19T09:38:52.827Z,101834.45
2019-01-19T09:43:54.786Z,101835.58
2019-01-19T09:48:56.396Z,101832.38
2019-01-19T09:53:58.026Z,101831.06
2019-01-19T09:58:59.966Z,101828.23
2019-01-19T10:04:01.993Z,101824.20
2019-01-19T10:09:06.055Z,101830.09
2019-01-19T10:14:07.569Z,101813.33
2019-01-19T10:19:09.222Z,101805.68
2019-01-19T10:24:10.849Z,101806.47
2019-01-19T10:29:12.418Z,101806.47
2019-01-19T10:34:14.006Z,101807.84
2019-01-19T10:39:15.564Z,101794.11
2019-01-19T10:44:17.886Z,101798.72
2019-01-19T10:49:19.438Z,101793.93
2019-01-19T10:54:20.998Z,101791.15
2019-01-19T10:59:22.636Z,101788.39
2019-01-19T11:04:24.792Z,101783.89
2019-01-19T11:09:27.128Z,101781.09
2019-01-19T11:14:28.936Z,101778.38
2019-01-19T11:19:30.586Z,101777.28
2019-01-19T11:24:32.226Z,101770.98
2019-01-19T11:29:33.898Z,101760.38
2019-01-19T11:34:35.487Z,101761.72
2019-01-19T11:39:37.276Z,101752.41
2019-01-19T11:44:38.993Z,101747.39
2019-01-19T11:49:41.000Z,101742.09
2019-01-19T11:54:42.589Z,101736.16
2019-01-19T11:59:44.289Z,101727.08
2019-01-19T12:04:45.976Z,101716.98
2019-01-19T12:09:47.992Z,101714.77
2019-01-19T12:14:50.082Z,101705.05
2019-01-19T12:19:51.677Z,101693.89
2019-01-19T12:24:53.982Z,101697.11
2019-01-19T12:29:55.612Z,101697.37
2019-01-19T12:34:57.375Z,101697.87
2019-01-19T12:39:59.212Z,101689.30
2019-01-19T12:45:00.854Z,101688.63
2019-01-19T12:50:03.213Z,101683.52
2019-01-19T12:55:05.869Z,101674.58
2019-01-19T13:00:10.683Z,101670.94
2019-01-19T13:05:21.474Z,101659.25
2019-01-19T13:10:30.421Z,101658.59
2019-01-19T13:16:04.358Z,101653.29
2019-01-19T13:21:45.358Z,101636.91
2019-01-19T13:27:27.789Z,101635.94
2019-01-19T13:33:01.494Z,101631.27
2019-01-19T13:38:43.451Z,101617.38
2019-01-19T13:44:30.501Z,101614.92
2019-01-19T13:50:01.238Z,101609.45
2019-01-19T13:55:48.326Z,101609.55
2019-01-19T14:01:21.030Z,101600.95
2019-01-19T14:07:25.866Z,101582.92
2019-01-19T14:13:15.789Z,101574.36
2019-01-19T14:18:54.363Z,101572.87
2019-01-19T14:24:26.454Z,101570.09
2019-01-19T14:30:11.892Z,101565.53
2019-01-19T14:35:57.072Z,101560.67
2019-01-19T14:41:45.652Z,101558.31
2019-01-19T14:47:11.575Z,101548.79
2019-01-19T14:52:28.524Z,101540.99
2019-01-19T14:58:31.064Z,101549.02
2019-01-19T15:04:35.883Z,101538.63
2019-01-19T15:10:27.729Z,101545.52
2019-01-19T15:16:09.902Z,101537.91
2019-01-19T15:21:39.726Z,101537.03
2019-01-19T15:27:26.113Z,101541.42
2019-01-19T15:33:15.178Z,101543.48
2019-01-19T15:38:55.733Z,101537.28
2019-01-19T15:44:54.397Z,101543.95
2019-01-19T15:50:45.645Z,101532.88
2019-01-19T15:56:42.464Z,101535.84
2019-01-19T16:02:27.559Z,101530.22
2019-01-19T16:08:23.831Z,101531.36
2019-01-19T16:14:12.297Z,101534.00
2019-01-19T16:20:11.035Z,101534.81
2019-01-19T16:25:39.399Z,101535.59
2019-01-19T16:31:31.514Z,101540.65
2019-01-19T16:37:04.521Z,101542.32
2019-01-19T16:42:26.909Z,101531.70
2019-01-19T16:48:12.223Z,101534.41
2019-01-19T16:53:22.435Z,101530.37
2019-01-19T16:59:05.715Z,101530.62
2019-01-19T17:04:48.255Z,101535.00
2019-01-19T17:10:12.307Z,101531.59
2019-01-19T17:16:09.618Z,101539.98
2019-01-19T17:22:01.963Z,101531.69
2019-01-19T17:27:35.086Z,101534.36
2019-01-19T17:33:13.386Z,101521.95
2019-01-19T17:38:28.557Z,101522.70
2019-01-19T17:43:56.795Z,101526.41
2019-01-19T17:49:17.551Z,101529.99
2019-01-19T17:54:52.714Z,101525.16
2019-01-19T18:00:23.925Z,101527.19
2019-01-19T18:06:12.739Z,101534.35
2019-01-19T18:11:55.011Z,101534.33
2019-01-19T18:17:23.274Z,101534.84
2019-01-19T18:23:12.363Z,101533.20
2019-01-19T18:28:43.185Z,101534.84
2019-01-19T18:34:01.687Z,101535.44
2019-01-19T18:39:33.102Z,101536.16
2019-01-19T18:44:43.532Z,101528.92
2019-01-19T18:50:48.123Z,101533.80
2019-01-19T18:56:28.725Z,101526.93
2019-01-19T19:02:18.318Z,101530.73
2019-01-19T19:08:01.134Z,101528.49
2019-01-19T19:13:30.608Z,101532.70
2019-01-19T19:19:08.183Z,101539.27
2019-01-19T19:24:33.040Z,101536.61
2019-01-19T19:30:13.476Z,101543.19
2019-01-19T19:35:50.584Z,101537.36
2019-01-19T19:41:42.487Z,101539.11
2019-01-19T19:47:07.181Z,101534.28
2019-01-19T19:52:11.403Z,101543.39
2019-01-19T19:57:13.287Z,101543.22
2019-01-19T20:02:14.945Z,101545.13
2019-01-19T20:07:16.588Z,101550.50
2019-01-19T20:12:18.318Z,101551.28
2019-01-19T20:17:19.998Z,101548.91
2019-01-19T20:22:21.560Z,101545.29
2019-01-19T20:27:23.312Z,101555.98
2019-01-19T20:32:24.896Z,101552.97
2019-01-19T20:37:26.570Z,101539.11
2019-01-19T20:42:29.261Z,101550.80
2019-01-19T20:47:31.024Z,101553.48
2019-01-19T20:52:32.745Z,101548.03
2019-01-19T20:57:34.331Z,101547.73
2019-01-19T21:02:36.350Z,101551.81
2019-01-19T21:07:38.113Z,101544.39
2019-01-19T21:12:39.819Z,101538.98
2019-01-19T21:17:41.507Z,101552.98
2019-01-19T21:22:43.282Z,101553.06
2019-01-19T21:27:46.897Z,101552.63
2019-01-19T21:32:48.553Z,101560.22
2019-01-19T21:37:50.140Z,101558.63
2019-01-19T21:42:52.186Z,101559.08
2019-01-19T21:47:54.200Z,101561.73
2019-01-19T21:52:55.775Z,101564.16
2019-01-19T21:57:58.269Z,101565.52
2019-01-19T22:02:59.808Z,101564.61
2019-01-19T22:08:01.844Z,101561.97
2019-01-19T22:13:03.720Z,101563.73
2019-01-19T22:18:05.325Z,101563.19
2019-01-19T22:23:06.961Z,101564.17
2019-01-19T22:28:11.850Z,101569.39
2019-01-19T22:33:13.483Z,101574.41
2019-01-19T22:38:15.183Z,101571.52
2019-01-19T22:43:22.916Z,101572.87
2019-01-19T22:48:24.596Z,101578.40
2019-01-19T22:53:27.554Z,101578.50
2019-01-19T22:58:29.340Z,101580.91
2019-01-19T23:03:33.540Z,101582.42
2019-01-19T23:08:35.677Z,101587.50
2019-01-19T23:13:37.167Z,101593.77
2019-01-19T23:18:38.722Z,101596.74
2019-01-19T23:23:40.565Z,101596.20
2019-01-19T23:28:42.215Z,101595.66
2019-01-19T23:33:44.043Z,101597.92
2019-01-19T23:38:45.657Z,101600.59
2019-01-19T23:43:47.188Z,101606.11
2019-01-19T23:48:48.781Z,101603.45
2019-01-19T23:53:50.334Z,101603.14
2019-01-19T23:58:51.871Z,101598.42
